createdAt,value
2018-05-27T00:00:15.735Z,0
2018-05-27T00:10:15.826Z,0
2018-05-27T00:20:15.807Z,0
2018-05-27T00:30:15.622Z,0
2018-05-27T00:40:15.679Z,0
2018-05-27T00:50:15.575Z,0
2018-05-27T01:00:15.598Z,0
2018-05-27T01:10:15.540Z,0
2018-05-27T01:20:15.815Z,0
2018-05-27T01:30:16.411Z,0
2018-05-27T01:40:15.880Z,0
2018-05-27T01:50:15.717Z,0
2018-05-27T02:00:16.446Z,0
2018-05-27T02:10:15.643Z,0
2018-05-27T02:20:15.574Z,0
2018-05-27T02:30:15.636Z,0
2018-05-27T02:40:15.574Z,0
2018-05-27T02:50:16.359Z,0
2018-05-27T03:00:15.637Z,0
2018-05-27T03:10:15.532Z,0
2018-05-27T03:20:15.634Z,0
2018-05-27T03:30:15.616Z,5
2018-05-27T03:40:15.567Z,10
2018-05-27T03:50:15.640Z,20
2018-05-27T04:00:15.571Z,30
2018-05-27T04:10:15.521Z,40
2018-05-27T04:20:15.639Z,55
2018-05-27T04:30:15.646Z,70
2018-05-27T04:40:15.675Z,80
2018-05-27T04:50:15.608Z,95
2018-05-27T05:00:15.527Z,100
2018-05-27T05:10:15.631Z,115
2018-05-27T05:20:15.614Z,120
2018-05-27T05:30:15.716Z,135
2018-05-27T05:40:17.223Z,150
2018-05-27T05:50:15.581Z,160
2018-05-27T06:00:15.675Z,205
2018-05-27T06:10:15.616Z,245
2018-05-27T06:20:15.604Z,265
2018-05-27T06:30:15.601Z,285
2018-05-27T06:40:15.517Z,300
2018-05-27T06:50:15.611Z,315
2018-05-27T07:00:15.537Z,330
2018-05-27T07:10:15.642Z,340
2018-05-27T07:20:15.595Z,355
2018-05-27T07:30:15.579Z,360
2018-05-27T07:40:15.581Z,370
2018-05-27T07:50:15.606Z,370
2018-05-27T08:00:15.667Z,375
2018-05-27T08:10:15.672Z,375
2018-05-27T08:20:15.689Z,370
2018-05-27T08:30:15.667Z,365
2018-05-27T08:40:15.930Z,345
2018-05-27T08:50:15.819Z,325
2018-05-27T09:00:15.890Z,200
2018-05-27T09:10:15.810Z,165
2018-05-27T09:20:16.131Z,165
2018-05-27T09:30:15.648Z,170
2018-05-27T09:40:15.699Z,170
2018-05-27T09:50:16.484Z,170
2018-05-27T10:00:16.490Z,165
2018-05-27T10:10:15.704Z,165
2018-05-27T10:20:16.003Z,165
2018-05-27T10:30:15.900Z,165
2018-05-27T10:40:15.718Z,170
2018-05-27T10:50:15.752Z,150
2018-05-27T11:00:15.862Z,165
2018-05-27T11:10:15.650Z,165
2018-05-27T11:20:15.786Z,160
2018-05-27T11:30:15.821Z,150
2018-05-27T11:40:15.856Z,150
2018-05-27T11:50:15.696Z,150
2018-05-27T12:00:17.374Z,195
2018-05-27T12:11:07.920Z,215
2018-05-27T12:21:19.625Z,230
2018-05-27T12:31:16.222Z,185
2018-05-27T12:41:16.745Z,165
2018-05-27T12:50:25.689Z,245
2018-05-27T13:00:25.550Z,290
2018-05-27T13:11:00.452Z,300
2018-05-27T13:20:40.163Z,220
2018-05-27T13:30:15.754Z,175
2018-05-27T13:40:15.809Z,170
2018-05-27T13:50:15.808Z,125
2018-05-27T14:00:15.853Z,90
2018-05-27T14:10:16.079Z,100
2018-05-27T14:20:15.912Z,145
2018-05-27T14:30:15.705Z,145
2018-05-27T14:40:16.835Z,160
2018-05-27T14:50:15.831Z,185
2018-05-27T15:00:15.825Z,110
2018-05-27T15:10:15.822Z,80
2018-05-27T15:20:15.835Z,50
2018-05-27T15:30:15.726Z,75
2018-05-27T15:40:16.165Z,75
2018-05-27T15:50:17.518Z,85
2018-05-27T16:00:15.853Z,70
2018-05-27T16:10:16.666Z,60
2018-05-27T16:20:15.939Z,65
2018-05-27T16:30:15.822Z,65
2018-05-27T16:40:16.047Z,45
2018-05-27T16:50:15.981Z,55
2018-05-27T17:00:16.156Z,50
2018-05-27T17:10:15.934Z,55
2018-05-27T17:20:16.071Z,70
2018-05-27T17:30:15.905Z,70
2018-05-27T17:40:15.907Z,65
2018-05-27T17:50:16.631Z,75
2018-05-27T18:00:15.938Z,85
2018-05-27T18:10:15.889Z,90
2018-05-27T18:20:15.846Z,50
2018-05-27T18:30:16.068Z,35
2018-05-27T18:40:15.753Z,25
2018-05-27T18:50:15.841Z,15
2018-05-27T19:00:16.450Z,10
2018-05-27T19:10:15.905Z,0
2018-05-27T19:20:16.136Z,0
2018-05-27T19:30:15.898Z,0
2018-05-27T19:40:16.183Z,0
2018-05-27T19:50:15.950Z,0
2018-05-27T20:00:16.016Z,0
2018-05-27T20:10:15.888Z,0
2018-05-27T20:20:16.381Z,0
2018-05-27T20:30:15.867Z,0
2018-05-27T20:40:16.835Z,0
2018-05-27T20:50:16.092Z,0
2018-05-27T21:00:16.151Z,0
2018-05-27T21:10:16.004Z,0
2018-05-27T21:20:17.324Z,0
2018-05-27T21:30:20.666Z,0
2018-05-27T21:40:18.420Z,0
2018-05-27T21:50:16.630Z,0
2018-05-27T22:00:25.636Z,0
2018-05-27T22:10:26.273Z,0
2018-05-27T22:20:15.997Z,0
2018-05-27T22:30:15.941Z,0
2018-05-27T22:40:16.576Z,0
2018-05-27T22:50:15.800Z,0
2018-05-27T23:00:15.982Z,0
2018-05-27T23:10:15.878Z,0
2018-05-27T23:20:15.923Z,0
2018-05-27T23:30:16.103Z,0
2018-05-27T23:40:15.872Z,0
2018-05-27T23:50:16.151Z,0
